Time;durP1;ratioP1;P1;durP2;ratioP2;P2;SDS_P1;SDS_P2;PMS_P1;PMS_P2;Temp;Humidity;BMP_temperature;BMP_pressure;BME280_temperature;BME280_humidity;BME280_pressure;Samples;Min_cycle;Max_cycle;Signal;HPM_P1;HPM_P2
2024/04/19 00:01:50;;;;;;;2.92;2.40;;;3.80;99.90;;;;;;5450836;26;20778;-73
2024/04/19 00:04:18;;;;;;;2.40;2.20;;;3.70;99.90;;;;;;5450861;26;20235;-72
2024/04/19 00:06:44;;;;;;;4.00;2.20;;;3.70;99.90;;;;;;5450925;26;20230;-72
2024/04/19 00:09:12;;;;;;;2.80;2.10;;;3.70;99.90;;;;;;5450659;26;20242;-72
2024/04/19 00:11:38;;;;;;;2.35;2.15;;;3.60;99.90;;;;;;5451142;26;20618;-72
2024/04/19 00:14:06;;;;;;;2.20;2.00;;;3.60;99.90;;;;;;5450724;26;20365;-72
2024/04/19 00:16:32;;;;;;;2.47;1.83;;;3.60;99.90;;;;;;5450854;26;20239;-73
2024/04/19 00:19:04;;;;;;;2.27;2.07;;;3.60;99.90;;;;;;5450673;26;20283;-72
2024/04/19 00:21:30;;;;;;;2.85;2.55;;;3.50;99.90;;;;;;5450242;26;20576;-72
2024/04/19 00:23:59;;;;;;;3.20;1.67;;;3.50;99.90;;;;;;5449155;26;20273;-72
2024/04/19 00:26:24;;;;;;;2.15;1.73;;;3.50;99.90;;;;;;5450449;26;20238;-72
2024/04/19 00:28:53;;;;;;;2.27;2.07;;;3.50;99.90;;;;;;5450077;26;20678;-72
2024/04/19 00:31:19;;;;;;;3.17;2.65;;;3.50;99.90;;;;;;5449956;26;20233;-72
2024/04/19 00:33:47;;;;;;;2.20;2.00;;;3.50;99.90;;;;;;5450537;26;20270;-72
2024/04/19 00:36:18;;;;;;;2.15;1.95;;;3.50;99.90;;;;;;5450306;26;20232;-72
2024/04/19 00:38:46;;;;;;;2.30;2.10;;;3.50;99.90;;;;;;5449799;26;20249;-72
2024/04/19 00:41:12;;;;;;;2.25;1.98;;;3.50;99.90;;;;;;5449808;26;20332;-72
2024/04/19 00:43:41;;;;;;;3.60;2.10;;;3.50;99.90;;;;;;5450197;26;20235;-73
2024/04/19 00:46:07;;;;;;;2.33;2.13;;;3.50;99.90;;;;;;5450358;26;20281;-73
2024/04/19 00:48:37;;;;;;;2.75;2.30;;;3.50;99.90;;;;;;5449757;26;20256;-72
2024/04/19 00:51:04;;;;;;;3.25;2.60;;;3.50;99.90;;;;;;5449762;26;20265;-73
2024/04/19 00:53:36;;;;;;;3.95;2.33;;;3.50;99.90;;;;;;5449930;26;20271;-73
2024/04/19 00:56:03;;;;;;;4.57;2.35;;;3.60;99.90;;;;;;5449931;26;20231;-73
2024/04/19 00:58:32;;;;;;;2.45;2.25;;;3.50;99.90;;;;;;5449554;26;20294;-72
2024/04/19 01:01:04;;;;;;;2.70;2.50;;;3.50;99.90;;;;;;5449334;26;20759;-73
2024/04/19 01:03:32;;;;;;;2.80;2.50;;;3.50;99.90;;;;;;5449835;26;20269;-72
2024/04/19 01:05:58;;;;;;;3.63;2.60;;;3.50;99.90;;;;;;5450050;26;20278;-72
2024/04/19 01:08:27;;;;;;;3.67;2.10;;;3.50;99.90;;;;;;5449243;26;20238;-72
2024/04/19 01:10:56;;;;;;;3.05;2.55;;;3.50;99.90;;;;;;5449403;26;20269;-72
2024/04/19 01:13:24;;;;;;;2.20;1.95;;;3.60;99.90;;;;;;5449508;26;20234;-72
2024/04/19 01:15:50;;;;;;;3.33;3.05;;;3.60;99.90;;;;;;5449614;26;20587;-72
2024/04/19 01:18:19;;;;;;;3.87;2.20;;;3.60;99.90;;;;;;5449381;26;20333;-73
2024/04/19 01:20:45;;;;;;;2.83;2.60;;;3.70;99.90;;;;;;5449089;26;20367;-73
2024/04/19 01:23:14;;;;;;;2.60;1.92;;;3.70;99.90;;;;;;5449566;26;20234;-72
2024/04/19 01:25:41;;;;;;;2.95;2.65;;;3.70;99.90;;;;;;5449400;26;20227;-72
2024/04/19 01:28:14;;;;;;;3.60;2.67;;;3.70;99.90;;;;;;5449060;26;20723;-73
2024/04/19 01:30:42;;;;;;;2.35;2.15;;;3.60;99.90;;;;;;5448882;26;20227;-72
2024/04/19 01:33:10;;;;;;;3.95;2.30;;;3.60;99.90;;;;;;5449381;26;20242;-72
2024/04/19 01:35:36;;;;;;;3.90;2.40;;;3.60;99.90;;;;;;5451942;26;22567;-73
2024/04/19 01:38:05;;;;;;;4.20;3.10;;;3.60;99.90;;;;;;5452813;26;20238;-73
2024/04/19 01:40:31;;;;;;;5.05;2.80;;;3.60;99.90;;;;;;5452385;26;20841;-72
2024/04/19 01:42:59;;;;;;;3.47;3.17;;;3.60;99.90;;;;;;5453185;26;20236;-72
2024/04/19 01:45:27;;;;;;;3.40;2.50;;;3.60;99.90;;;;;;5452923;26;20230;-73
2024/04/19 01:47:56;;;;;;;3.85;2.65;;;3.60;99.90;;;;;;5452818;26;20346;-72
2024/04/19 01:50:21;;;;;;;4.28;3.05;;;3.50;99.90;;;;;;5451990;26;20271;-72
2024/04/19 01:52:50;;;;;;;3.10;2.80;;;3.60;99.90;;;;;;5452865;26;20235;-73
2024/04/19 01:55:17;;;;;;;3.70;3.05;;;3.60;99.90;;;;;;5452665;26;20276;-73
2024/04/19 01:57:46;;;;;;;3.80;2.75;;;3.50;99.90;;;;;;5452585;26;20238;-73
2024/04/19 02:00:12;;;;;;;5.63;2.60;;;3.50;99.90;;;;;;5452305;26;20234;-73
2024/04/19 02:02:43;;;;;;;3.67;2.00;;;3.50;99.90;;;;;;5452732;26;20272;-72
2024/04/19 02:05:09;;;;;;;5.22;2.92;;;3.50;99.90;;;;;;5452798;26;20757;-73
2024/04/19 02:07:37;;;;;;;4.43;2.80;;;3.50;99.90;;;;;;5452457;26;20234;-73
2024/04/19 02:10:03;;;;;;;3.28;2.95;;;3.50;99.90;;;;;;5451971;26;20268;-73
2024/04/19 02:12:32;;;;;;;4.80;3.30;;;3.40;99.90;;;;;;5452198;26;20371;-73
2024/04/19 02:14:57;;;;;;;2.78;2.50;;;3.40;99.90;;;;;;5452381;26;20252;-72
2024/04/19 02:17:26;;;;;;;3.83;2.90;;;3.50;99.90;;;;;;5452250;26;20586;-73
2024/04/19 02:19:54;;;;;;;3.97;2.83;;;3.40;99.90;;;;;;5451959;26;20272;-73
2024/04/19 02:22:22;;;;;;;3.33;2.72;;;3.40;99.90;;;;;;5451435;26;20363;-72
2024/04/19 02:24:48;;;;;;;4.95;3.65;;;3.50;99.90;;;;;;5452213;26;20234;-73
2024/04/19 02:30:52;;;;;;;3.67;3.07;;;3.50;99.90;;;;;;5451532;26;20229;-73
2024/04/19 02:32:54;;;;;;;3.45;3.08;;;3.50;99.90;;;;;;5455068;26;20265;-72
2024/04/19 02:35:25;;;;;;;4.80;3.00;;;3.50;99.90;;;;;;5451872;26;20264;-73
2024/04/19 02:37:53;;;;;;;4.50;3.70;;;3.50;99.90;;;;;;5452109;26;20297;-73
2024/04/19 02:40:21;;;;;;;6.00;3.95;;;3.60;99.90;;;;;;5451584;26;20268;-73
2024/04/19 02:42:50;;;;;;;6.55;3.83;;;3.60;99.90;;;;;;5452001;26;20684;-73
2024/04/19 02:45:18;;;;;;;5.78;2.50;;;3.60;99.90;;;;;;5451745;26;20271;-73
2024/04/19 02:47:46;;;;;;;3.65;2.40;;;3.60;99.90;;;;;;5451108;26;20250;-73
2024/04/19 02:50:15;;;;;;;4.70;3.13;;;3.60;99.90;;;;;;5451616;26;20394;-73
2024/04/19 02:52:46;;;;;;;4.07;2.80;;;3.70;99.90;;;;;;5451746;26;20238;-73
2024/04/19 02:55:14;;;;;;;6.05;4.10;;;3.80;99.90;;;;;;5451825;26;20230;-73
2024/04/19 02:57:42;;;;;;;4.18;2.95;;;3.80;99.90;;;;;;5451551;26;20855;-72
2024/04/19 03:00:12;;;;;;;5.57;3.63;;;3.80;99.90;;;;;;5451246;26;20233;-73
2024/04/19 03:02:40;;;;;;;7.72;3.28;;;3.90;99.90;;;;;;5451514;26;20280;-73
2024/04/19 03:05:09;;;;;;;4.50;3.05;;;3.90;99.90;;;;;;5451238;26;20275;-72
2024/04/19 03:07:37;;;;;;;3.08;2.78;;;3.90;99.90;;;;;;5442069;26;20238;-72
2024/04/19 03:10:09;;;;;;;5.70;3.40;;;4.00;99.90;;;;;;5445491;26;20253;-72
2024/04/19 03:12:37;;;;;;;3.28;2.65;;;4.00;99.90;;;;;;5451534;26;20230;-72
2024/04/19 03:15:06;;;;;;;3.97;2.95;;;4.00;99.90;;;;;;5451567;26;20318;-72
2024/04/19 03:17:35;;;;;;;5.72;2.95;;;4.00;99.90;;;;;;5451092;26;20273;-73
2024/04/19 03:20:03;;;;;;;10.02;3.70;;;4.00;99.90;;;;;;5450876;26;20274;-73
2024/04/19 03:22:31;;;;;;;3.58;2.78;;;4.10;99.90;;;;;;5451472;26;20646;-72
2024/04/19 03:24:57;;;;;;;5.50;3.70;;;4.10;99.90;;;;;;5451418;26;20293;-73
2024/04/19 03:27:28;;;;;;;5.40;3.50;;;4.10;99.90;;;;;;5451154;26;20355;-73
2024/04/19 03:29:57;;;;;;;5.32;3.67;;;4.20;99.90;;;;;;5450733;26;20280;-72
2024/04/19 03:32:26;;;;;;;3.90;3.50;;;4.10;99.90;;;;;;5451181;26;20239;-73
2024/04/19 03:34:55;;;;;;;5.32;3.20;;;4.10;99.90;;;;;;5451252;26;20286;-72
2024/04/19 03:37:24;;;;;;;5.45;3.50;;;4.10;99.90;;;;;;5450923;26;20284;-73
2024/04/19 03:39:52;;;;;;;4.15;2.97;;;4.20;99.90;;;;;;5450885;26;20230;-73
2024/04/19 03:42:21;;;;;;;5.50;3.45;;;4.30;99.90;;;;;;5451129;26;20239;-74
2024/04/19 03:47:35;;;;;;;3.90;3.30;;;4.40;99.90;;;;;;5395552;26;20347;-71
2024/04/19 03:50:04;;;;;;;3.30;2.53;;;4.40;99.90;;;;;;5450448;26;20268;-71
2024/04/19 03:52:32;;;;;;;4.45;3.70;;;4.40;99.90;;;;;;5450820;26;20604;-72
2024/04/19 03:55:00;;;;;;;3.80;2.95;;;4.50;99.90;;;;;;5450847;26;20235;-71
2024/04/19 03:57:29;;;;;;;3.83;3.03;;;4.50;99.90;;;;;;5444507;26;20564;-72
2024/04/19 04:00:00;;;;;;;4.93;3.63;;;4.40;99.90;;;;;;5440116;26;20728;-72
2024/04/19 04:02:28;;;;;;;6.57;3.75;;;4.40;99.90;;;;;;5436212;26;20758;-71
2024/04/19 04:04:56;;;;;;;6.20;3.20;;;4.40;99.90;;;;;;5450748;26;20234;-71
2024/04/19 04:07:25;;;;;;;5.43;3.58;;;4.40;99.90;;;;;;5450532;26;20238;-71
2024/04/19 04:09:53;;;;;;;3.58;3.25;;;4.40;99.90;;;;;;5450453;26;20269;-72
2024/04/19 04:12:22;;;;;;;4.15;3.60;;;4.40;99.90;;;;;;5451639;26;20570;-72
2024/04/19 04:14:50;;;;;;;4.78;3.10;;;4.40;99.90;;;;;;5450610;26;20235;-72
2024/04/19 04:17:21;;;;;;;4.38;3.15;;;4.40;99.90;;;;;;5450597;26;20236;-72
2024/04/19 04:19:49;;;;;;;4.53;3.35;;;4.40;99.90;;;;;;5450610;26;20781;-73
2024/04/19 04:22:15;;;;;;;2.80;2.60;;;4.40;99.90;;;;;;5451205;26;20586;-72
2024/04/19 04:24:44;;;;;;;4.23;2.80;;;4.40;99.90;;;;;;5450263;26;20335;-72
2024/04/19 04:27:12;;;;;;;6.05;3.45;;;4.40;99.90;;;;;;5450230;26;20811;-72
2024/04/19 04:29:40;;;;;;;5.78;3.90;;;4.40;99.90;;;;;;5449525;26;20284;-72
2024/04/19 04:32:09;;;;;;;4.82;3.85;;;4.40;99.90;;;;;;5450386;26;20238;-73
2024/04/19 04:34:40;;;;;;;3.95;3.00;;;4.40;99.90;;;;;;5451362;26;20234;-72
2024/04/19 04:37:09;;;;;;;4.55;3.15;;;4.40;99.90;;;;;;5450948;26;20656;-72
2024/04/19 04:39:37;;;;;;;9.60;3.42;;;4.40;99.90;;;;;;5449484;26;20242;-72
2024/04/19 04:42:06;;;;;;;4.28;3.00;;;4.40;99.90;;;;;;5449749;26;20240;-73
2024/04/19 04:44:34;;;;;;;4.03;3.00;;;4.30;99.90;;;;;;5449489;26;20231;-73
2024/04/19 04:47:03;;;;;;;4.25;3.33;;;4.30;99.90;;;;;;5449542;26;20280;-72
2024/04/19 04:49:31;;;;;;;5.05;4.15;;;4.40;99.90;;;;;;5449155;26;20231;-73
2024/04/19 04:52:02;;;;;;;5.25;2.70;;;4.40;99.90;;;;;;5449564;26;20234;-73
2024/04/19 04:54:31;;;;;;;4.85;2.97;;;4.40;99.90;;;;;;5449370;26;20713;-73
2024/04/19 04:57:00;;;;;;;4.25;3.42;;;4.40;99.90;;;;;;5449294;26;20235;-72
2024/04/19 04:59:25;;;;;;;5.55;3.30;;;4.40;99.90;;;;;;5448790;26;20278;-72
2024/04/19 05:01:54;;;;;;;4.93;3.13;;;4.40;99.90;;;;;;5449594;26;20243;-72
2024/04/19 05:04:22;;;;;;;4.22;3.45;;;4.40;99.90;;;;;;5449372;26;20282;-72
2024/04/19 05:06:52;;;;;;;4.28;3.80;;;4.40;99.90;;;;;;5449297;26;20230;-72
2024/04/19 05:09:23;;;;;;;3.50;3.03;;;4.40;99.90;;;;;;5449783;26;20238;-72
2024/04/19 05:11:52;;;;;;;4.82;3.65;;;4.40;99.90;;;;;;5452902;26;20227;-71
2024/04/19 05:14:20;;;;;;;4.45;3.92;;;4.50;99.90;;;;;;5453082;26;20796;-72
2024/04/19 05:16:48;;;;;;;6.28;3.95;;;4.50;99.90;;;;;;5452191;26;20268;-72
2024/04/19 05:19:17;;;;;;;4.93;3.33;;;4.50;99.90;;;;;;5452413;26;20238;-72
2024/04/19 05:21:45;;;;;;;5.03;3.35;;;4.50;99.90;;;;;;5452979;26;20260;-73
2024/04/19 05:24:13;;;;;;;4.88;3.63;;;4.60;99.90;;;;;;5452717;26;20701;-72
2024/04/19 05:26:44;;;;;;;4.10;3.70;;;4.60;99.90;;;;;;5452619;26;20250;-73
2024/04/19 05:29:15;;;;;;;5.97;4.03;;;4.60;99.90;;;;;;5452301;26;20272;-73
2024/04/19 05:31:43;;;;;;;3.80;3.40;;;4.60;99.90;;;;;;5452460;26;20325;-72
2024/04/19 05:34:11;;;;;;;4.32;3.20;;;4.60;99.90;;;;;;5452541;26;20230;-72
2024/04/19 05:36:39;;;;;;;4.82;3.40;;;4.70;99.90;;;;;;5452366;26;20352;-72
2024/04/19 05:39:08;;;;;;;6.70;3.50;;;4.70;99.90;;;;;;5452225;26;20282;-71
2024/04/19 05:41:36;;;;;;;3.15;2.85;;;4.70;99.90;;;;;;5452176;26;20247;-71
2024/04/19 05:44:08;;;;;;;3.90;3.10;;;4.70;99.90;;;;;;5452541;26;20236;-71
2024/04/19 05:46:37;;;;;;;3.58;2.88;;;4.80;99.90;;;;;;5452718;26;20569;-71
2024/04/19 05:49:05;;;;;;;4.03;2.95;;;4.90;99.90;;;;;;5452581;26;20361;-71
2024/04/19 05:51:33;;;;;;;5.47;3.55;;;4.90;99.90;;;;;;5452654;26;20370;-71
2024/04/19 05:54:02;;;;;;;4.38;3.42;;;4.90;99.90;;;;;;5452672;26;20232;-71
2024/04/19 05:56:30;;;;;;;3.97;3.50;;;5.00;99.90;;;;;;5452433;26;20230;-71
2024/04/19 05:58:59;;;;;;;4.85;3.70;;;5.00;99.90;;;;;;5453251;26;20286;-71
2024/04/19 06:01:30;;;;;;;5.40;3.65;;;5.10;99.90;;;;;;5452756;26;20745;-71
2024/04/19 06:03:58;;;;;;;8.50;3.65;;;5.20;99.90;;;;;;5453168;26;20232;-72
2024/04/19 06:06:26;;;;;;;5.70;3.20;;;5.30;99.90;;;;;;5453367;26;20237;-71
2024/04/19 06:08:55;;;;;;;5.90;3.00;;;5.40;99.90;;;;;;5452621;26;20732;-71
2024/04/19 06:11:23;;;;;;;4.32;3.20;;;5.40;99.90;;;;;;5452103;26;20281;-72
2024/04/19 06:13:52;;;;;;;4.22;3.13;;;5.40;99.90;;;;;;5452535;26;20558;-71
2024/04/19 06:16:20;;;;;;;4.75;3.20;;;5.50;99.90;;;;;;5452481;26;20238;-72
2024/04/19 06:18:51;;;;;;;11.15;4.03;;;5.50;99.90;;;;;;5452416;26;20272;-72
2024/04/19 06:21:19;;;;;;;4.95;3.90;;;5.60;99.90;;;;;;5450703;26;20761;-72
2024/04/19 06:23:48;;;;;;;5.57;2.95;;;5.70;99.90;;;;;;5452298;26;20233;-72
2024/04/19 06:26:16;;;;;;;3.53;2.40;;;5.70;99.90;;;;;;5452266;26;20276;-72
2024/04/19 06:28:46;;;;;;;2.80;2.50;;;5.80;99.90;;;;;;5451980;26;20587;-72
2024/04/19 06:31:15;;;;;;;5.95;2.90;;;5.80;99.90;;;;;;5451966;26;20237;-72
2024/04/19 06:33:43;;;;;;;3.58;2.72;;;6.00;99.90;;;;;;5452212;26;20332;-72
2024/04/19 06:36:14;;;;;;;3.60;2.80;;;5.90;99.90;;;;;;5452416;26;20237;-72
2024/04/19 06:38:43;;;;;;;6.18;2.85;;;5.90;99.90;;;;;;5452057;26;20236;-72
2024/04/19 06:41:11;;;;;;;3.92;2.35;;;6.00;99.90;;;;;;5449935;26;20242;-72
2024/04/19 06:43:39;;;;;;;4.35;2.70;;;6.00;99.90;;;;;;5437634;26;20280;-72
2024/04/19 06:46:08;;;;;;;2.65;2.45;;;6.20;99.90;;;;;;5442366;26;20334;-72
2024/04/19 06:48:37;;;;;;;2.47;2.28;;;6.30;99.90;;;;;;5443416;26;20282;-72
2024/04/19 06:51:06;;;;;;;4.10;2.67;;;6.40;99.90;;;;;;5448950;26;20240;-72
2024/04/19 06:53:37;;;;;;;2.83;2.40;;;6.40;99.90;;;;;;5451708;26;20234;-72
2024/04/19 06:56:05;;;;;;;3.42;2.92;;;6.40;99.90;;;;;;5451732;26;20232;-71
2024/04/19 06:58:34;;;;;;;3.70;2.17;;;6.40;99.90;;;;;;5451453;26;20272;-72
2024/04/19 07:01:07;;;;;;;4.07;2.20;;;6.50;99.90;;;;;;5451360;26;20237;-72
2024/04/19 07:03:35;;;;;;;3.72;2.50;;;6.60;99.90;;;;;;5451741;26;20296;-72
2024/04/19 07:06:11;;;;;;;3.17;2.28;;;6.60;99.90;;;;;;5451446;26;20272;-72
2024/04/19 07:08:43;;;;;;;2.45;2.25;;;6.70;99.90;;;;;;5451376;26;20237;-72
2024/04/19 07:11:11;;;;;;;2.67;1.92;;;6.80;99.90;;;;;;5451308;26;20241;-72
2024/04/19 07:13:40;;;;;;;2.95;2.50;;;6.90;99.90;;;;;;5451617;26;20287;-72
2024/04/19 07:16:09;;;;;;;2.33;2.13;;;7.00;99.90;;;;;;5451873;26;20266;-72
2024/04/19 07:18:37;;;;;;;2.40;2.20;;;6.80;99.90;;;;;;5451526;26;20234;-72
2024/04/19 07:21:06;;;;;;;2.65;2.45;;;6.80;99.90;;;;;;5451236;26;20252;-72
2024/04/19 07:23:35;;;;;;;2.35;2.13;;;6.70;99.90;;;;;;5451345;26;20233;-72
2024/04/19 07:26:06;;;;;;;2.53;1.90;;;6.60;99.90;;;;;;5451338;26;20268;-72
2024/04/19 07:28:34;;;;;;;2.60;2.40;;;6.50;99.90;;;;;;5450537;26;20232;-72
2024/04/19 07:31:03;;;;;;;3.00;2.17;;;6.50;99.90;;;;;;5450760;26;20626;-72
2024/04/19 07:33:31;;;;;;;2.50;2.22;;;6.50;99.90;;;;;;5450540;26;20279;-71
2024/04/19 07:35:59;;;;;;;3.17;2.70;;;6.50;99.90;;;;;;5451262;26;20233;-72
2024/04/19 07:38:28;;;;;;;2.90;2.40;;;6.50;99.90;;;;;;5451146;26;20574;-72
2024/04/19 07:40:56;;;;;;;4.10;2.22;;;6.50;99.90;;;;;;5450800;26;20259;-72
2024/04/19 07:43:27;;;;;;;2.85;2.60;;;6.40;99.90;;;;;;5450994;26;20233;-72
2024/04/19 07:45:55;;;;;;;4.22;3.05;;;6.20;99.90;;;;;;5450901;26;20237;-72
2024/04/19 07:48:21;;;;;;;2.50;1.88;;;6.20;99.90;;;;;;5450830;26;20754;-71
2024/04/19 07:50:49;;;;;;;2.37;2.17;;;6.00;99.90;;;;;;5450311;26;20490;-72
2024/04/19 07:53:20;;;;;;;2.65;2.20;;;6.00;99.90;;;;;;5451113;26;20606;-72
2024/04/19 07:55:49;;;;;;;4.50;2.92;;;6.00;99.90;;;;;;5451024;26;20237;-72
2024/04/19 07:58:17;;;;;;;2.90;2.25;;;6.00;99.90;;;;;;5450800;26;20230;-72
2024/04/19 08:00:49;;;;;;;2.88;2.40;;;6.10;99.90;;;;;;5450347;26;20233;-72
2024/04/19 08:03:17;;;;;;;3.05;2.67;;;6.10;99.90;;;;;;5450791;26;20226;-72
2024/04/19 08:05:46;;;;;;;3.65;2.83;;;6.20;99.90;;;;;;5450607;26;20234;-72
2024/04/19 08:08:14;;;;;;;3.20;2.90;;;6.10;99.90;;;;;;5450395;26;20263;-72
2024/04/19 08:10:42;;;;;;;5.95;2.83;;;6.00;99.90;;;;;;5450466;26;20627;-72
2024/04/19 08:13:11;;;;;;;2.75;2.42;;;6.00;99.90;;;;;;5450815;26;20232;-72
2024/04/19 08:15:39;;;;;;;3.03;2.40;;;5.90;99.90;;;;;;5450694;26;20236;-72
2024/04/19 08:18:10;;;;;;;3.17;2.13;;;5.80;99.90;;;;;;5450563;26;20291;-71
2024/04/19 08:20:38;;;;;;;4.15;2.72;;;5.80;99.90;;;;;;5449984;26;20266;-71
2024/04/19 08:23:07;;;;;;;3.80;2.60;;;5.90;99.90;;;;;;5450296;26;20275;-72
2024/04/19 08:25:35;;;;;;;2.40;2.20;;;5.80;99.90;;;;;;5450320;26;20236;-72
2024/04/19 08:28:03;;;;;;;3.13;2.83;;;5.80;99.90;;;;;;5450005;26;20320;-72
2024/04/19 08:30:32;;;;;;;2.67;2.42;;;5.80;99.90;;;;;;5449886;26;20237;-72
2024/04/19 08:33:00;;;;;;;2.50;2.30;;;5.80;99.90;;;;;;5450364;26;20292;-72
2024/04/19 08:35:31;;;;;;;3.22;2.00;;;5.80;99.90;;;;;;5450185;26;20233;-72
2024/04/19 08:37:59;;;;;;;2.70;2.10;;;5.70;99.90;;;;;;5449932;26;20702;-72
2024/04/19 08:40:29;;;;;;;2.22;2.03;;;5.70;99.90;;;;;;5449619;26;20234;-72
2024/04/19 08:42:58;;;;;;;2.88;2.08;;;5.70;99.90;;;;;;5449979;26;20283;-71
2024/04/19 08:45:26;;;;;;;2.63;1.85;;;5.60;99.90;;;;;;5448696;26;20236;-72
2024/04/19 08:47:56;;;;;;;2.60;2.03;;;5.50;99.90;;;;;;5449794;26;20241;-72
2024/04/19 08:50:26;;;;;;;3.50;2.85;;;5.50;99.90;;;;;;5449537;26;20249;-72
2024/04/19 08:52:57;;;;;;;3.17;2.35;;;5.50;99.90;;;;;;5452226;26;20357;-72
2024/04/19 08:55:26;;;;;;;1.75;1.50;;;5.40;99.90;;;;;;5450009;26;20236;-72
2024/04/19 08:57:55;;;;;;;2.88;2.13;;;5.30;99.90;;;;;;5449988;26;20237;-72
2024/04/19 09:00:24;;;;;;;4.53;3.47;;;5.30;99.90;;;;;;5449402;26;20281;-72
2024/04/19 09:02:52;;;;;;;2.25;2.05;;;5.30;99.90;;;;;;5449715;26;20292;-72
2024/04/19 09:05:21;;;;;;;1.77;1.67;;;5.20;99.90;;;;;;5449742;26;20274;-72
2024/04/19 09:07:49;;;;;;;2.45;2.17;;;5.10;99.90;;;;;;5449606;26;20734;-72
2024/04/19 09:10:20;;;;;;;3.65;2.22;;;5.20;99.90;;;;;;5449170;26;20235;-72
2024/04/19 09:12:49;;;;;;;2.58;2.05;;;5.10;99.90;;;;;;5449622;26;20231;-72
2024/04/19 09:15:17;;;;;;;3.88;2.92;;;5.10;99.90;;;;;;5449609;26;20456;-72
2024/04/19 09:17:47;;;;;;;2.15;1.80;;;5.10;99.90;;;;;;5449316;26;20275;-72
2024/04/19 09:20:16;;;;;;;4.03;3.03;;;5.00;99.90;;;;;;5448881;26;20230;-72
2024/04/19 09:22:44;;;;;;;5.28;2.67;;;5.10;99.90;;;;;;5449547;26;20600;-72
2024/04/19 09:25:15;;;;;;;2.30;1.50;;;5.10;99.90;;;;;;5449238;26;20236;-72
2024/04/19 09:27:46;;;;;;;2.35;2.15;;;5.00;99.90;;;;;;5449217;26;20309;-71
2024/04/19 09:30:15;;;;;;;2.70;2.10;;;5.00;99.90;;;;;;5448804;26;20384;-72
2024/04/19 09:32:43;;;;;;;2.55;2.45;;;5.00;99.90;;;;;;5448959;26;20278;-72
2024/04/19 09:35:12;;;;;;;2.05;1.85;;;4.90;99.90;;;;;;5449136;26;20579;-72
2024/04/19 09:37:42;;;;;;;2.53;2.03;;;4.80;99.90;;;;;;5448971;26;20244;-71
2024/04/19 09:40:11;;;;;;;2.40;2.20;;;4.80;99.90;;;;;;5448577;26;20236;-72
2024/04/19 09:42:42;;;;;;;2.83;2.00;;;4.80;99.90;;;;;;5449053;26;20234;-72
2024/04/19 09:45:14;;;;;;;3.97;2.58;;;4.80;99.90;;;;;;5448940;26;20550;-72
2024/04/19 09:47:47;;;;;;;5.93;3.10;;;4.80;99.90;;;;;;5449161;26;20235;-72
2024/04/19 09:50:17;;;;;;;2.90;2.13;;;4.80;99.90;;;;;;5448543;26;20254;-72
2024/04/19 09:52:51;;;;;;;2.40;1.80;;;4.80;99.90;;;;;;5449309;26;20232;-72
2024/04/19 09:55:23;;;;;;;3.95;2.47;;;4.80;99.90;;;;;;5450252;26;20260;-71
2024/04/19 09:57:52;;;;;;;2.60;2.08;;;4.80;99.90;;;;;;5452508;26;20285;-72
2024/04/19 10:00:28;;;;;;;2.58;2.38;;;4.80;99.90;;;;;;5452218;26;20563;-72
2024/04/19 10:02:59;;;;;;;1.95;1.75;;;4.80;99.90;;;;;;5452603;26;20353;-72
2024/04/19 10:05:29;;;;;;;3.15;2.58;;;4.80;99.90;;;;;;5452531;26;20232;-72
2024/04/19 10:07:58;;;;;;;3.25;2.60;;;4.80;99.90;;;;;;5452419;26;20234;-72
2024/04/19 10:10:27;;;;;;;2.20;2.00;;;4.80;99.90;;;;;;5452185;26;20610;-72
2024/04/19 10:12:55;;;;;;;2.42;2.22;;;4.80;99.90;;;;;;5452364;26;20230;-72
2024/04/19 10:15:26;;;;;;;2.47;2.10;;;4.90;99.90;;;;;;5452284;26;20820;-73
2024/04/19 10:17:54;;;;;;;3.92;2.72;;;4.90;99.90;;;;;;5452168;26;20242;-72
2024/04/19 10:20:25;;;;;;;3.38;2.28;;;4.90;99.90;;;;;;5451706;26;20268;-72
2024/04/19 10:22:54;;;;;;;3.75;3.00;;;4.90;99.90;;;;;;5452243;26;20240;-72
2024/04/19 10:25:24;;;;;;;3.92;3.53;;;4.90;99.90;;;;;;5451979;26;20238;-72
2024/04/19 10:27:53;;;;;;;4.15;3.67;;;5.00;99.90;;;;;;5451911;26;20284;-72
2024/04/19 10:30:21;;;;;;;3.28;2.90;;;5.00;99.90;;;;;;5451493;26;20342;-72
2024/04/19 10:32:55;;;;;;;3.13;2.55;;;5.00;99.90;;;;;;5452124;26;20231;-73
2024/04/19 10:35:24;;;;;;;3.13;2.30;;;5.00;99.90;;;;;;5452047;26;20268;-72
2024/04/19 10:37:52;;;;;;;2.53;2.33;;;5.00;99.90;;;;;;5452101;26;20230;-72
2024/04/19 10:40:22;;;;;;;5.32;3.78;;;5.00;99.90;;;;;;5451489;26;20492;-72
2024/04/19 10:42:50;;;;;;;3.03;2.80;;;5.10;99.90;;;;;;5452235;26;20267;-72
2024/04/19 10:45:18;;;;;;;4.20;3.25;;;5.20;99.90;;;;;;5452405;26;20621;-72
2024/04/19 10:47:47;;;;;;;2.70;2.20;;;5.30;99.90;;;;;;5451879;26;20240;-72
2024/04/19 10:50:18;;;;;;;2.95;2.65;;;5.40;99.90;;;;;;5451338;26;20335;-72
2024/04/19 10:52:46;;;;;;;2.03;1.73;;;5.40;99.90;;;;;;5451901;26;20353;-72
2024/04/19 10:55:15;;;;;;;3.05;2.75;;;5.40;99.90;;;;;;5451742;26;20304;-71
2024/04/19 10:57:43;;;;;;;4.00;3.05;;;5.40;99.90;;;;;;5451854;26;20236;-72
2024/04/19 11:00:13;;;;;;;2.85;2.58;;;5.40;99.90;;;;;;5451397;26;20613;-72
2024/04/19 11:02:42;;;;;;;3.83;2.70;;;5.40;99.90;;;;;;5451780;26;20349;-72
2024/04/19 11:05:11;;;;;;;2.25;2.05;;;5.50;99.90;;;;;;5451876;26;20271;-72
2024/04/19 11:07:42;;;;;;;2.88;2.20;;;5.50;99.90;;;;;;5451256;26;20335;-72
2024/04/19 11:10:11;;;;;;;2.78;2.25;;;5.50;99.90;;;;;;5452009;26;20271;-72
2024/04/19 11:12:39;;;;;;;3.13;2.28;;;5.50;99.90;;;;;;5451574;26;20239;-72
2024/04/19 11:15:09;;;;;;;3.75;2.22;;;5.50;99.90;;;;;;5451367;26;20232;-72
2024/04/19 11:17:39;;;;;;;2.60;2.40;;;5.50;99.90;;;;;;5451525;26;20279;-72
2024/04/19 11:20:08;;;;;;;1.90;1.80;;;5.50;99.90;;;;;;5451307;26;20234;-72
2024/04/19 11:22:39;;;;;;;3.95;2.50;;;5.50;99.90;;;;;;5451544;26;20233;-72
2024/04/19 11:25:12;;;;;;;2.55;1.95;;;5.50;99.90;;;;;;5451258;26;20236;-72
2024/04/19 11:27:40;;;;;;;2.03;1.83;;;5.50;99.90;;;;;;5451083;26;20265;-72
2024/04/19 11:30:09;;;;;;;2.75;1.80;;;5.50;99.90;;;;;;5450750;26;20239;-72
2024/04/19 11:32:39;;;;;;;2.50;1.60;;;5.50;99.90;;;;;;5451357;26;20265;-72
2024/04/19 11:35:10;;;;;;;2.30;2.10;;;5.50;99.90;;;;;;5451510;26;20242;-72
2024/04/19 11:37:39;;;;;;;1.70;1.60;;;5.40;99.90;;;;;;5451317;26;20373;-72
2024/04/19 11:40:22;;;;;;;2.40;1.98;;;5.40;99.90;;;;;;5450619;26;20363;-72
2024/04/19 11:42:50;;;;;;;2.40;1.92;;;5.40;99.90;;;;;;5451190;26;20228;-72
2024/04/19 11:45:21;;;;;;;1.40;1.30;;;5.40;99.90;;;;;;5450984;26;20610;-72
2024/04/19 11:47:50;;;;;;;1.80;1.70;;;5.40;99.90;;;;;;5450964;26;20231;-72
2024/04/19 11:50:20;;;;;;;2.75;1.50;;;5.30;99.90;;;;;;5450897;26;20781;-72
2024/04/19 11:52:49;;;;;;;1.83;1.58;;;5.30;99.90;;;;;;5451002;26;20667;-72
2024/04/19 11:55:17;;;;;;;2.17;1.85;;;5.10;99.90;;;;;;5450884;26;20317;-72
2024/04/19 11:57:48;;;;;;;1.70;1.60;;;5.10;99.90;;;;;;5451266;26;20227;-72
2024/04/19 12:00:19;;;;;;;1.88;1.70;;;5.10;99.90;;;;;;5450722;26;20230;-71
2024/04/19 12:02:49;;;;;;;1.63;1.52;;;5.00;99.90;;;;;;5451556;26;20252;-71
2024/04/19 12:05:17;;;;;;;1.75;1.55;;;5.00;99.90;;;;;;5450964;26;20238;-71
2024/04/19 12:07:46;;;;;;;2.50;1.20;;;5.10;99.90;;;;;;5446147;26;20346;-71
2024/04/19 12:10:14;;;;;;;1.42;1.23;;;5.10;99.90;;;;;;5450484;26;20574;-71
2024/04/19 12:12:43;;;;;;;3.15;1.70;;;5.10;99.90;;;;;;5451368;26;20256;-72
2024/04/19 12:15:14;;;;;;;2.03;1.75;;;5.10;99.90;;;;;;5451280;26;20234;-71
2024/04/19 12:17:42;;;;;;;1.38;1.08;;;5.10;99.90;;;;;;5450893;26;20242;-73
2024/04/19 12:20:11;;;;;;;2.20;1.35;;;5.00;99.90;;;;;;5450328;26;20575;-70
2024/04/19 12:22:39;;;;;;;1.20;1.10;;;5.00;99.90;;;;;;5450857;26;20229;-71
2024/04/19 12:25:08;;;;;;;2.13;1.60;;;5.00;99.90;;;;;;5450814;26;20230;-71
2024/04/19 12:27:37;;;;;;;1.50;1.20;;;5.00;99.90;;;;;;5450578;26;20590;-71
2024/04/19 12:30:05;;;;;;;1.85;1.35;;;4.90;99.90;;;;;;5450397;26;20358;-72
2024/04/19 12:32:38;;;;;;;1.55;1.42;;;4.90;99.90;;;;;;5450605;26;20290;-72
2024/04/19 12:35:07;;;;;;;2.88;1.83;;;4.90;99.90;;;;;;5450671;26;20274;-72
2024/04/19 12:37:35;;;;;;;1.92;1.73;;;4.90;99.90;;;;;;5450239;26;20268;-72
2024/04/19 12:40:04;;;;;;;1.75;1.63;;;4.90;99.90;;;;;;5449936;26;20266;-72
2024/04/19 12:42:33;;;;;;;1.60;1.50;;;4.90;99.90;;;;;;5450375;26;20266;-71
2024/04/19 12:45:01;;;;;;;1.75;1.65;;;5.00;99.90;;;;;;5450411;26;20227;-72
2024/04/19 12:47:30;;;;;;;1.85;1.52;;;5.10;99.90;;;;;;5450439;26;20293;-71
2024/04/19 12:50:01;;;;;;;1.75;1.55;;;5.10;99.90;;;;;;5449868;26;20749;-71
2024/04/19 12:52:30;;;;;;;1.95;1.50;;;5.20;99.90;;;;;;5445228;26;20267;-72
2024/04/19 12:54:58;;;;;;;1.55;1.45;;;5.20;99.90;;;;;;5449869;26;20314;-72
2024/04/19 12:57:27;;;;;;;1.60;1.20;;;5.20;99.90;;;;;;5447416;26;20288;-71
2024/04/19 12:59:56;;;;;;;1.35;1.17;;;5.30;99.90;;;;;;5448904;26;20265;-71
2024/04/19 13:02:24;;;;;;;1.55;1.45;;;5.30;99.90;;;;;;5449306;26;20294;-71
2024/04/19 13:04:53;;;;;;;1.73;1.40;;;5.30;99.90;;;;;;5449190;26;20337;-72
2024/04/19 13:07:24;;;;;;;1.90;1.40;;;5.30;99.90;;;;;;5448949;26;20278;-71
2024/04/19 13:09:52;;;;;;;1.25;1.15;;;5.30;99.90;;;;;;5448568;26;20247;-72
2024/04/19 13:12:21;;;;;;;2.00;1.45;;;5.30;99.90;;;;;;5448851;26;20239;-72